AREA preflight bulletin
Updated "live" 25 Sep 2017, 18:33

back to the map




METAR og TAF


KANGERLUSSUAQ
  AKTUEL BGSF 251820Z AUTO 03003KT 9999NDV BKN070/// BKN085/// 01/M07 Q1002=
  TAF 24 timer BGSF 251703Z 2518/2624 07010KT 9999 BKN120 TEMPO 2518/2609 BKN060 TEMPO 2609/2624 10015G25KT BKN080=

SISIMIUT
  AKTUEL BGSS 251750Z 32007KT 300V360 9999 FEW015 BKN180 04/M04 Q1002=
  TAF 9 timer BGSS 251806Z 2518/2601 31010KT 9999 FEW020 BKN140 TEMPO 2518/2601 VRB08KT=

MANIITSOQ
  AKTUEL BGMQ 251750Z 30008KT 270V340 9999 FEW020 BKN180 05/M06 Q0996=
  TAF 9 timer BGMQ 251806Z 2518/2522 32010KT 9999 FEW020 BKN140 TEMPO 2518/2522 VRB08KT=

NUUK
  AKTUEL BGGH 251750Z 05009KT 9999 BKN180 03/M04 Q0994=
  TAF 9 timer BGGH 251743Z 2518/2602 05012KT 9999 FEW020 BKN140 TEMPO 2518/2602 BKN080=

ILULISSAT
  AKTUEL BGJN 251750Z 36006KT 9999 SCT150 02/M07 Q1006=
  TAF 9 timer BGJN 251743Z 2518/2601 10012KT 9999 FEW050 SCT140 TEMPO 2518/2523 BKN080 TEMPO 2523/2601 12022KT BKN080=

AASIAAT
  AKTUEL BGAA 251750Z 07010KT 040V100 9999 FEW025 SCT150 03/M03 Q1005=
  TAF 9 timer BGAA 251459Z 2515/2520 11010KT 9999 SCT020 BKN090 TEMPO 2515/2520 BKN018=


SIGMETS:

SONDRESTROM FIR
  SIGMET BGGL SIGMET 4 VALID 251520/251920 BGSF- BGGL SONDRESTROM FIR SEV TURB FCST AT 1520Z WI N6558 W04123 - N6717 W03556 - N6601 W03323 - N6427 W03829 - N6253 W04017 - N6332 W04402 - N6558 W04123 SFC/FL090 STNR INTSF=

NOTAM/SNOWTAM for operationel use has to be confirmed with the
nearest AIS Briefing Office prior to a flight.

ICAO
BGSS (SISIMIUT)

FIR
BGGL

Notam_id:
BGB0673/17

valid from:
1708311526

E) THR ID LIGHTS RWY 13 SOUTHSIDE OUT OF SERVICE.

valid to:
1709302359


Replacing:
BGB0582/17

ICAO
BGGH (NUUK)

FIR
BGGL

Notam_id:
BGB0654/17

valid from:
1710120000

E) TRIGGER NOTAM - PERM AIP AIRAC AMDT 10/17 WEF 12 OCT 2017. CHANGE TO TEL NUMBER.

valid to:
1710252359




ICAO
BGGH (NUUK)

FIR
BGGL

Notam_id:
BGB0602/17

valid from:
1708081726

E) AD TEL CHANGED TO: +299 382654. REF AIP GREENLAND AD2 - BGGH - 1, 2.5.

valid to:
PERM




ICAO
BGGH (NUUK)

FIR
BGGL

Notam_id:
BGB0677/17

valid from:
1709011240

E) BGGH AFIS FREQ 119.100 MHZ NO COVERAGE IN SECTOR BETWEEN 060 DEG MAG AND 210 DEG MAG BELOW FL100

valid to:
1710311500




ICAO
BGJN (ILULISSAT)

FIR
BGGL

Notam_id:
BGB0683/17

valid from:
1709051154

E) FUELLING FACILITIES AND CAPACITY: JET A1: 300 L/MIN, WAITING TIME FOR REFUELLING CAN OCCUR. 100LL: LIMITED QUANTITIES, AVBL BY SPECIAL ARRANGEMENT ONLY.

valid to:
1710312000


Replacing:
BGB0631/17

ICAO
BGJN (ILULISSAT)

FIR
BGGL

Notam_id:
BGB0684/17

valid from:
1709061017

E) EVERY OTHER LIGHT ON APCH LIGHT SYSTEM RWY 25 OUT OF SERVICE.

valid to:
1709301900EST




ICAO
BGGL (SONDRESTROM FIR)

FIR
BGGL

Notam_id:
BGA0379/17

valid from:
1710120000

E) TRIGGER NOTAM - PERM AIP AIRAC AMDT 10/17 WEF 12 OCT 2017. REF GEN 1.7: ANNEX 14 (AERODROMES AND HELIPORTS) VOLUME I AND II UPDATED.

valid to:
1710252359




ICAO
BGGL (SONDRESTROM FIR)

FIR
BGGL

Notam_id:
BGB0616/17

valid from:
1710050000

E) TEMPORARY DANGER AREA POLARSTERN EAST IS ACTIVE. REF AIP SUP 03/17 PUBLISHED 11 AUG 2017. LATERAL LIMITS: 803500N0110000W 794500N0032000W 762700N0071800W 775600N0152200W TRAFFIC IS ADVISED NOT TO OPERATE IN THE AREA WHILE DRONE ACTIVITIES ARE PERFORMED IN THE AREA. INFORMATION ABOUT DRONE OPERATIONS IN THE AREA CAN BE OBTAINED FROM SONDRESTROM FIC BY PHONE +299 363304 OR ON HF 5526 KHZ. BACKUP HF 8945 KHZ. F) SFC G) 4000FT AMSL

valid to:
1710102359




ICAO
BGGL (SONDRESTROM FIR)

FIR
BGGL

Notam_id:
BGB0713/17

valid from:
1709151102

E) TUNULLIARFIK MAST 922FT OBST LIGHT ON TRANSMISSIONLINE OUT OF SERVICE. PSN 605254N0455957W.

valid to:
1711151600


Replacing:
BGB0536/17

ICAO
BGGL (SONDRESTROM FIR)

FIR
BGGL

Notam_id:
BGA0387/17

valid from:
1709010445

E) CHECKLIST YEAR=2015 0175 YEAR=2016 NIL YEAR=2017 0254 0255 0269 0334 0335 0340 0361 0363 0377 0379 0384 0386 LATEST PUBLICATIONS AIP AIRAC AMDT IFR 010/2017 EFFECTIVE DATE 12 OCT 17 AIP AMDT IFR 008/2017 EFFECTIVE DATE 31 AUG 17 AIP SUP IFR 003/2017 EFFECTIVE DATE 11 AUG 17 AIC IFR A002/2017 EFFECTIVE DATE 31 AUG 17

valid to:
1710010445EST


Replacing:
BGA0339/17

ICAO
BGGL (SONDRESTROM FIR)

FIR
BGGL

Notam_id:
BGB0676/17

valid from:
1709010445

E) CHECKLIST YEAR=2016 0593 YEAR=2017 0535 0536 0570 0571 0585 0602 0614 0615 0616 0626 0631 0636 0649 0650 0654 0655 0665 0666 0670 0671 0672 0673 0675 LATEST PUBLICATIONS AIP AIRAC AMDT IFR 010/2017 EFFECTIVE DATE 12 OCT 17 AIP AMDT IFR 008/2017 EFFECTIVE DATE 31 AUG 17 AIP SUP IFR 003/2017 EFFECTIVE DATE 11 AUG 17 AIC IFR A002/2017 EFFECTIVE DATE 31 AUG 17

valid to:
1710010445EST


Replacing:
BGB0584/17

ICAO
BGGL (SONDRESTROM FIR)

FIR
BGGL

Notam_id:
BGC0038/17

valid from:
1709010446

E) CHECKLIST YEAR=2016 0044 YEAR=2017 0030 0031 0035 0037 LATEST PUBLICATIONS AIP AIRAC AMDT IFR 010/2017 EFFECTIVE DATE 12 OCT 17 AIP AMDT IFR 008/2017 EFFECTIVE DATE 31 AUG 17 AIP SUP IFR 003/2017 EFFECTIVE DATE 11 AUG 17 AIC IFR A002/2017 EFFECTIVE DATE 31 AUG 17

valid to:
1710010446EST


Replacing:
BGC0033/17

ICAO
BGGL (SONDRESTROM FIR)

FIR
BGGL

Notam_id:
BGA0410/17

valid from:
1709281000

E) FIC SONDRESTROM INFORMATION FREQ 121.300 MHZ PSN 640955N0514444 (NUUK) OUT OF SERVICE DUE TO MAINTENANCE.

valid to:
1709291800




ICAO
BGGL (SONDRESTROM FIR)

FIR
BGGL

Notam_id:
BGB0614/17

valid from:
1709180000

E) TEMPORARY RESTRICTED AREA POLARSTERN WEST IS ACTIVE. REF AIP SUP 03/17 PUBLISHED 11 AUG 2017. LATERAL LIMITS: 804100N0155500W 803500N0110000W 775600N0152200W 775000N0172500W 791200N0212000W NO TRAFFIC PERMITTED IN THE RESTRICTED AREA WHILE DRONE ACTIVITIES ARE PERFORMED WITHIN THE RESTRICTED AREA. INFORMATION ABOUT ACTUAL DRONE ACTIVITIES CAN BE OBTAINED FROM SONDRESTROM FIC BY PHONE +299 363304 OR ON HF 5526 KHZ. BACKUP HF 8945 KHZ. F) SFC G) 4000FT AMSL

valid to:
1710082359




ICAO
BGGL (SONDRESTROM FIR)

FIR
BGGL

Notam_id:
BGA0361/17

valid from:
1709160000

E) TRIGGER NOTAM - AIP SUP 03/17 PUBLISHED 11 AUG 2017 - WEF 16 SEP 2017. RESTRICTED AREA POLARSTERN WEST AND DANGER AREA POLARSTERN EAST. F) GND G) 4000FT AMSL

valid to:
1709292359




ICAO
BGGL (SONDRESTROM FIR)

FIR
BGGL

Notam_id:
BGA0340/17

valid from:
1709140000

E) TRIGGER NOTAM - PERM AIP AIRAC AMDT 09/17 WEF 14 SEP 2017. REF GEN 3.5.2: CHANGES TO UUMMANNAQ/QAARSUT CONCERNING METEOROLOGICAL OBSERVATIONS AND REPORTS.

valid to:
1709272359




ICAO
BGGL (SONDRESTROM FIR)

FIR
BGGL

Notam_id:
BGB0712/17

valid from:
1709151100

E) KANGERLLUARSUK MAST 263FT OBST LIGHT ON TRANSMISSIONLINE OUT OF SERVICE. PSN 605130N0455730W.

valid to:
1711151600


Replacing:
BGB0535/17

ICAO
BGAA (AASIAAT)

FIR
BGGL

Notam_id:
BGA0269/17

valid from:
1706081136

D) DAILY 1100-1115 2300-2315


E) ASCENT OR WEATHER BALLOON TAKES PLACE TWICE A DAY 1100-1115 AND 2300-2315. POSN 684201N0525105W LOCATED WEST OF THE AIRPORT AT A DISTANCE OF APPROX 3 KM. THE BALLOON CAN RISE TO A HEIGHT OF UP TO 35 KM. REF AIP GREENLAND AD 2 - BGAA - 4. F) SFC G) FL999

valid to:
PERM





Copyright Naviair   2003-2016